createdAt,value
2022-09-06T00:00:39.033Z,15.59
2022-09-06T00:03:41.475Z,15.55
2022-09-06T00:06:43.653Z,15.56
2022-09-06T00:09:45.455Z,15.57
2022-09-06T00:12:47.927Z,15.55
2022-09-06T00:15:49.768Z,15.53
2022-09-06T00:18:55.601Z,15.53
2022-09-06T00:21:57.365Z,15.55
2022-09-06T00:25:01.089Z,15.47
2022-09-06T00:28:05.217Z,15.40
2022-09-06T00:31:18.251Z,15.29
2022-09-06T00:34:20.290Z,15.33
2022-09-06T00:37:22.063Z,15.29
2022-09-06T00:40:24.166Z,15.23
2022-09-06T00:43:26.421Z,15.27
2022-09-06T00:46:29.918Z,15.26
2022-09-06T00:49:35.764Z,15.22
2022-09-06T00:52:38.495Z,15.21
2022-09-06T00:55:43.282Z,15.22
2022-09-06T00:58:45.184Z,15.20
2022-09-06T01:01:47.161Z,15.12
2022-09-06T01:04:49.984Z,15.08
2022-09-06T01:08:03.402Z,15.08
2022-09-06T01:11:34.181Z,15.08
2022-09-06T01:14:45.692Z,15.15
2022-09-06T01:17:56.612Z,15.12
2022-09-06T01:21:25.380Z,15.09
2022-09-06T01:24:31.013Z,15.06
2022-09-06T01:27:51.516Z,14.99
2022-09-06T01:31:05.291Z,14.93
2022-09-06T01:34:16.741Z,14.88
2022-09-06T01:37:23.223Z,14.66
2022-09-06T01:40:25.895Z,14.63
2022-09-06T01:43:33.230Z,14.66
2022-09-06T01:47:05.371Z,14.54
2022-09-06T01:50:16.511Z,14.56
2022-09-06T01:53:36.744Z,14.51
2022-09-06T01:57:02.032Z,14.63
2022-09-06T02:00:11.188Z,14.66
2022-09-06T02:03:25.224Z,14.71
2022-09-06T02:06:30.283Z,14.74
2022-09-06T02:09:37.100Z,14.68
2022-09-06T02:12:41.556Z,14.65
2022-09-06T02:15:47.675Z,14.63
2022-09-06T02:19:09.636Z,14.54
2022-09-06T02:22:13.716Z,14.56
2022-09-06T02:25:22.866Z,14.53
2022-09-06T02:28:25.255Z,14.56
2022-09-06T02:31:34.973Z,14.52
2022-09-06T02:34:40.395Z,14.54
2022-09-06T02:37:42.827Z,14.59
2022-09-06T02:40:45.844Z,14.60
2022-09-06T02:43:47.644Z,14.64
2022-09-06T02:46:51.822Z,14.57
2022-09-06T02:49:56.909Z,14.59
2022-09-06T02:53:10.305Z,14.57
2022-09-06T02:56:13.544Z,14.57
2022-09-06T02:59:15.367Z,14.54
2022-09-06T03:02:17.397Z,14.46
2022-09-06T03:05:19.593Z,14.43
2022-09-06T03:08:25.898Z,14.45
2022-09-06T03:11:28.557Z,14.40
2022-09-06T03:14:30.495Z,14.44
2022-09-06T03:17:33.785Z,14.33
2022-09-06T03:20:37.223Z,14.25
2022-09-06T03:23:39.735Z,14.11
2022-09-06T03:26:44.509Z,14.20
2022-09-06T03:29:46.427Z,14.23
2022-09-06T03:32:49.128Z,14.23
2022-09-06T03:35:53.550Z,14.21
2022-09-06T03:38:55.652Z,14.24
2022-09-06T03:41:57.526Z,14.21
2022-09-06T03:45:00.795Z,14.23
2022-09-06T03:48:02.885Z,14.25
2022-09-06T03:51:04.921Z,14.25
2022-09-06T03:54:06.704Z,14.26
2022-09-06T03:57:09.276Z,14.26
2022-09-06T04:00:11.723Z,14.26
2022-09-06T04:03:13.538Z,14.21
2022-09-06T04:06:15.561Z,14.13
2022-09-06T04:09:17.461Z,14.08
2022-09-06T04:12:19.384Z,14.10
2022-09-06T04:15:21.294Z,14.15
2022-09-06T04:18:23.567Z,14.22
2022-09-06T04:21:25.642Z,14.16
2022-09-06T04:24:27.508Z,14.06
2022-09-06T04:27:29.498Z,13.94
2022-09-06T04:30:31.577Z,14.01
2022-09-06T04:33:35.254Z,14.11
2022-09-06T04:36:37.445Z,14.10
2022-09-06T04:39:39.313Z,14.09
2022-09-06T04:42:41.246Z,14.10
2022-09-06T04:45:43.459Z,14.18
2022-09-06T04:48:45.319Z,14.29
2022-09-06T04:51:47.212Z,14.36
2022-09-06T04:54:49.080Z,14.38
2022-09-06T04:57:51.451Z,14.49
2022-09-06T05:00:53.760Z,14.58
2022-09-06T05:03:57.059Z,14.65
2022-09-06T05:07:05.675Z,14.97
2022-09-06T05:10:07.995Z,15.19
2022-09-06T05:13:09.904Z,15.51
2022-09-06T05:16:12.443Z,15.76
2022-09-06T05:19:14.609Z,15.96
2022-09-06T05:22:16.601Z,16.12
2022-09-06T05:25:18.665Z,16.30
2022-09-06T05:28:20.708Z,16.53
2022-09-06T05:31:28.727Z,16.70
2022-09-06T05:34:31.593Z,16.85
2022-09-06T05:37:33.676Z,16.92
2022-09-06T05:40:38.026Z,16.91
2022-09-06T05:43:40.055Z,16.82
2022-09-06T05:46:45.473Z,16.90
2022-09-06T05:49:47.674Z,16.94
2022-09-06T05:52:54.082Z,17.07
2022-09-06T05:55:56.080Z,17.21
2022-09-06T05:58:58.121Z,17.59
2022-09-06T06:02:00.987Z,17.69
2022-09-06T06:05:04.777Z,17.98
2022-09-06T06:08:06.911Z,18.11
2022-09-06T06:11:10.027Z,18.02
2022-09-06T06:14:12.065Z,17.98
2022-09-06T06:17:14.300Z,18.05
2022-09-06T06:20:16.299Z,18.12
2022-09-06T06:23:18.154Z,18.30
2022-09-06T06:26:21.731Z,18.51
2022-09-06T06:29:25.378Z,18.38
2022-09-06T06:32:27.359Z,18.28
2022-09-06T06:35:29.388Z,18.16
2022-09-06T06:38:37.909Z,18.12
2022-09-06T06:41:39.767Z,17.73
2022-09-06T06:45:02.143Z,17.65
2022-09-06T06:48:04.242Z,17.57
2022-09-06T06:51:07.296Z,17.62
2022-09-06T06:54:09.335Z,17.55
2022-09-06T06:57:12.768Z,17.46
2022-09-06T07:00:15.407Z,17.42
2022-09-06T07:03:18.598Z,17.52
2022-09-06T07:06:21.464Z,17.72
2022-09-06T07:09:23.789Z,17.86
2022-09-06T07:12:26.123Z,18.11
2022-09-06T07:15:28.440Z,18.13
2022-09-06T07:18:30.591Z,18.06
2022-09-06T07:24:39.938Z,18.20
2022-09-06T07:30:47.148Z,18.22
2022-09-06T07:33:53.775Z,18.18
2022-09-06T07:36:57.760Z,18.16
2022-09-06T07:40:00.880Z,18.29
2022-09-06T07:43:02.750Z,18.29
2022-09-06T07:46:08.987Z,18.21
2022-09-06T07:49:10.851Z,18.17
2022-09-06T07:55:36.127Z,18.23
2022-09-06T07:58:40.806Z,18.24
2022-09-06T08:01:43.309Z,18.37
2022-09-06T08:04:51.034Z,18.33
2022-09-06T08:11:15.762Z,18.21
2022-09-06T08:14:17.865Z,18.41
2022-09-06T08:17:20.439Z,18.55
2022-09-06T08:20:22.307Z,18.69
2022-09-06T08:23:27.488Z,18.92
2022-09-06T08:26:31.541Z,19.24
2022-09-06T08:29:37.222Z,19.58
2022-09-06T08:32:41.300Z,19.95
2022-09-06T08:35:44.316Z,20.17
2022-09-06T08:38:46.443Z,20.55
2022-09-06T08:42:04.689Z,20.81
2022-09-06T08:45:19.266Z,21.20
2022-09-06T08:48:21.364Z,21.35
2022-09-06T08:51:54.266Z,21.42
2022-09-06T08:55:22.584Z,21.58
2022-09-06T08:58:59.654Z,21.73
2022-09-06T09:02:12.432Z,21.99
2022-09-06T09:05:22.406Z,22.13
2022-09-06T09:09:07.290Z,22.11
2022-09-06T09:12:21.378Z,22.35
2022-09-06T09:15:24.474Z,22.52
2022-09-06T09:18:30.381Z,22.62
2022-09-06T09:21:35.097Z,22.68
2022-09-06T09:24:37.762Z,23.02
2022-09-06T09:27:40.052Z,23.18
2022-09-06T09:30:55.471Z,23.51
2022-09-06T09:33:57.512Z,23.24
2022-09-06T09:40:52.285Z,23.41
2022-09-06T09:44:04.656Z,23.51
2022-09-06T09:47:28.824Z,23.67
2022-09-06T09:50:33.631Z,23.78
2022-09-06T09:53:50.638Z,23.58
2022-09-06T09:56:53.173Z,23.89
2022-09-06T10:00:01.528Z,24.17
2022-09-06T10:03:16.827Z,24.37
2022-09-06T10:09:59.759Z,24.46
2022-09-06T10:13:26.986Z,24.39
2022-09-06T10:16:45.861Z,24.21
2022-09-06T10:19:49.117Z,24.29
2022-09-06T10:23:03.170Z,24.15
2022-09-06T10:26:17.839Z,24.33
2022-09-06T10:29:27.838Z,24.40
2022-09-06T10:32:48.157Z,24.37
2022-09-06T10:35:50.261Z,24.24
2022-09-06T10:39:07.958Z,24.18
2022-09-06T10:42:37.788Z,24.12
2022-09-06T10:45:59.408Z,24.15
2022-09-06T10:49:01.567Z,24.30
2022-09-06T10:52:07.722Z,24.77
2022-09-06T10:55:12.297Z,24.99
2022-09-06T10:58:25.884Z,25.10
2022-09-06T11:01:39.462Z,25.75
2022-09-06T11:11:45.352Z,24.92
2022-09-06T11:14:47.975Z,25.33
2022-09-06T11:18:06.519Z,25.30
2022-09-06T11:21:26.925Z,25.29
2022-09-06T11:24:47.441Z,25.07
2022-09-06T11:27:58.145Z,24.79
2022-09-06T11:31:00.719Z,24.74
2022-09-06T11:34:10.451Z,24.74
2022-09-06T11:37:28.266Z,24.70
2022-09-06T11:40:37.788Z,24.60
2022-09-06T11:43:53.648Z,24.43
2022-09-06T11:46:55.909Z,24.38
2022-09-06T11:49:58.052Z,24.33
2022-09-06T11:53:17.752Z,24.08
2022-09-06T11:56:28.501Z,24.29
2022-09-06T11:59:36.936Z,24.21
2022-09-06T12:02:41.366Z,24.21
2022-09-06T12:06:17.923Z,23.85
2022-09-06T12:09:34.511Z,23.89
2022-09-06T12:12:43.421Z,24.08
2022-09-06T12:15:51.751Z,24.19
2022-09-06T12:18:55.103Z,24.37
2022-09-06T12:21:56.942Z,24.24
2022-09-06T12:25:02.097Z,24.42
2022-09-06T12:28:05.868Z,24.39
2022-09-06T12:31:26.490Z,24.23
2022-09-06T12:34:37.181Z,24.43
2022-09-06T12:38:01.718Z,24.28
2022-09-06T12:41:05.148Z,24.19
2022-09-06T12:44:07.817Z,24.14
2022-09-06T12:47:16.749Z,24.05
2022-09-06T12:50:26.118Z,24.06
2022-09-06T12:53:28.350Z,24.06
2022-09-06T12:56:33.554Z,23.82
2022-09-06T12:59:35.872Z,23.58
2022-09-06T13:02:48.608Z,23.07
2022-09-06T13:05:51.765Z,23.01
2022-09-06T13:08:56.226Z,23.36
2022-09-06T13:12:08.607Z,23.22
2022-09-06T13:15:29.224Z,23.39
2022-09-06T13:18:39.877Z,22.82
2022-09-06T13:21:43.990Z,22.60
2022-09-06T13:24:47.960Z,23.01
2022-09-06T13:27:51.882Z,22.65
2022-09-06T13:31:11.071Z,23.05
2022-09-06T13:34:24.947Z,22.93
2022-09-06T13:37:32.192Z,22.76
2022-09-06T13:41:10.140Z,22.65
2022-09-06T13:44:17.611Z,22.80
2022-09-06T13:47:19.975Z,22.94
2022-09-06T13:50:28.076Z,22.66
2022-09-06T13:54:14.690Z,22.25
2022-09-06T13:57:50.039Z,22.62
2022-09-06T14:10:24.837Z,22.84
2022-09-06T14:13:26.776Z,22.85
2022-09-06T14:16:28.859Z,22.72
2022-09-06T14:19:31.836Z,22.69
2022-09-06T14:22:33.882Z,22.93
2022-09-06T14:25:37.209Z,23.12
2022-09-06T14:28:39.189Z,23.32
2022-09-06T14:31:41.148Z,23.23
2022-09-06T14:34:43.220Z,23.09
2022-09-06T14:37:45.335Z,23.21
2022-09-06T14:40:47.715Z,23.19
2022-09-06T14:43:55.284Z,22.95
2022-09-06T14:46:57.321Z,22.76
2022-09-06T14:50:00.697Z,22.60
2022-09-06T14:53:03.162Z,22.44
2022-09-06T14:56:05.709Z,22.41
2022-09-06T14:59:09.332Z,22.20
2022-09-06T15:02:11.307Z,22.19
2022-09-06T15:05:13.718Z,22.27
2022-09-06T15:08:15.907Z,22.42
2022-09-06T15:11:35.398Z,22.41
2022-09-06T15:14:38.104Z,22.41
2022-09-06T15:17:40.352Z,22.61
2022-09-06T15:20:43.623Z,22.62
2022-09-06T15:23:45.725Z,22.74
2022-09-06T15:26:47.981Z,22.82
2022-09-06T15:29:50.272Z,23.11
2022-09-06T15:32:52.245Z,23.24
2022-09-06T15:35:57.581Z,23.39
2022-09-06T15:39:01.273Z,23.58
2022-09-06T15:42:03.520Z,23.74
2022-09-06T15:45:06.632Z,23.68
2022-09-06T15:48:08.857Z,23.68
2022-09-06T15:51:12.536Z,23.56
2022-09-06T15:54:16.883Z,23.45
2022-09-06T15:57:18.979Z,23.37
2022-09-06T16:00:22.934Z,23.31
2022-09-06T16:03:25.114Z,23.27
2022-09-06T16:06:28.392Z,23.31
2022-09-06T16:09:31.986Z,23.21
2022-09-06T16:12:34.161Z,23.05
2022-09-06T16:15:36.058Z,23.12
2022-09-06T16:18:40.090Z,23.09
2022-09-06T16:21:43.595Z,23.02
2022-09-06T16:24:45.799Z,22.81
2022-09-06T16:27:47.894Z,22.58
2022-09-06T16:30:50.061Z,22.39
2022-09-06T16:33:53.865Z,22.19
2022-09-06T16:36:57.235Z,22.23
2022-09-06T16:39:59.365Z,22.04
2022-09-06T16:43:02.364Z,22.00
2022-09-06T16:46:05.058Z,21.92
2022-09-06T16:49:07.272Z,21.81
2022-09-06T16:52:09.182Z,21.60
2022-09-06T16:55:11.326Z,21.24
2022-09-06T16:58:14.005Z,21.07
2022-09-06T17:01:16.818Z,20.86
2022-09-06T17:04:19.084Z,20.89
2022-09-06T17:07:21.212Z,20.79
2022-09-06T17:10:23.428Z,20.68
2022-09-06T17:13:25.408Z,20.65
2022-09-06T17:16:45.967Z,20.43
2022-09-06T17:19:48.172Z,20.46
2022-09-06T17:22:51.193Z,20.44
2022-09-06T17:25:56.146Z,20.19
2022-09-06T17:28:58.922Z,20.01
2022-09-06T17:32:04.083Z,19.94
2022-09-06T17:35:07.546Z,19.84
2022-09-06T17:38:10.022Z,19.79
2022-09-06T17:41:21.704Z,19.67
2022-09-06T17:44:25.625Z,19.58
2022-09-06T17:47:28.284Z,19.46
2022-09-06T17:50:31.232Z,19.48
2022-09-06T17:53:34.333Z,19.32
2022-09-06T17:56:41.483Z,19.20
2022-09-06T17:59:43.495Z,19.08
2022-09-06T18:02:45.599Z,19.04
2022-09-06T18:05:47.661Z,18.98
2022-09-06T18:08:51.905Z,18.86
2022-09-06T18:11:53.897Z,18.93
2022-09-06T18:14:55.761Z,18.79
2022-09-06T18:17:58.548Z,18.79
2022-09-06T18:21:00.907Z,18.80
2022-09-06T18:24:03.914Z,18.59
2022-09-06T18:27:06.982Z,18.31
2022-09-06T18:30:14.607Z,18.27
2022-09-06T18:33:17.059Z,18.17
2022-09-06T18:36:19.922Z,18.18
2022-09-06T18:39:33.243Z,18.11
2022-09-06T18:42:37.835Z,18.06
2022-09-06T18:45:40.011Z,17.94
2022-09-06T18:48:42.372Z,17.94
2022-09-06T18:51:45.871Z,17.90
2022-09-06T18:54:49.160Z,17.91
2022-09-06T18:57:52.618Z,17.99
2022-09-06T19:01:05.690Z,17.92
2022-09-06T19:04:08.906Z,17.79
2022-09-06T19:07:11.105Z,17.59
2022-09-06T19:10:13.447Z,17.48
2022-09-06T19:13:16.520Z,17.42
2022-09-06T19:16:19.573Z,17.47
2022-09-06T19:19:23.855Z,17.44
2022-09-06T19:22:26.784Z,17.49
2022-09-06T19:25:28.862Z,17.63
2022-09-06T19:28:31.603Z,17.65
2022-09-06T19:31:35.987Z,17.53
2022-09-06T19:34:38.462Z,17.36
2022-09-06T19:37:40.983Z,17.34
2022-09-06T19:40:43.500Z,17.24
2022-09-06T19:43:50.279Z,17.30
2022-09-06T19:46:52.937Z,17.28
2022-09-06T19:49:55.276Z,17.23
2022-09-06T19:52:58.113Z,17.12
2022-09-06T19:56:00.645Z,16.95
2022-09-06T19:59:08.485Z,16.95
2022-09-06T20:02:10.948Z,16.85
2022-09-06T20:05:13.252Z,16.82
2022-09-06T20:08:15.550Z,16.84
2022-09-06T20:11:27.456Z,16.79
2022-09-06T20:14:29.773Z,16.80
2022-09-06T20:17:34.043Z,16.77
2022-09-06T20:20:36.469Z,16.82
2022-09-06T20:23:38.908Z,16.82
2022-09-06T20:26:41.028Z,16.70
2022-09-06T20:29:43.082Z,16.68
2022-09-06T20:32:45.468Z,16.59
2022-09-06T20:36:02.088Z,16.50
2022-09-06T20:39:04.672Z,16.54
2022-09-06T20:42:09.766Z,16.60
2022-09-06T20:45:13.543Z,16.61
2022-09-06T20:48:16.099Z,16.51
2022-09-06T20:51:20.595Z,16.48
2022-09-06T20:54:23.295Z,16.34
2022-09-06T20:57:25.494Z,16.36
2022-09-06T21:00:30.696Z,16.23
2022-09-06T21:03:32.756Z,16.18
2022-09-06T21:06:36.962Z,16.09
2022-09-06T21:09:39.458Z,16.11
2022-09-06T21:12:46.641Z,16.08
2022-09-06T21:15:49.483Z,16.05
2022-09-06T21:18:56.518Z,15.99
2022-09-06T21:21:58.587Z,15.88
2022-09-06T21:25:04.100Z,15.89
2022-09-06T21:28:06.135Z,15.82
2022-09-06T21:31:12.092Z,15.74
2022-09-06T21:34:17.231Z,15.71
2022-09-06T21:37:19.773Z,15.67
2022-09-06T21:40:21.773Z,15.62
2022-09-06T21:43:30.075Z,15.57
2022-09-06T21:46:39.073Z,15.57
2022-09-06T21:49:41.298Z,15.61
2022-09-06T21:52:45.805Z,15.68
2022-09-06T21:55:48.286Z,15.66
2022-09-06T21:58:57.702Z,15.65
2022-09-06T22:02:00.468Z,15.74
2022-09-06T22:05:06.721Z,15.64
2022-09-06T22:08:11.009Z,15.57
2022-09-06T22:11:16.836Z,15.49
2022-09-06T22:14:22.069Z,15.42
2022-09-06T22:17:24.268Z,15.42
2022-09-06T22:20:31.165Z,15.42
2022-09-06T22:23:33.445Z,15.38
2022-09-06T22:26:40.283Z,15.40
2022-09-06T22:29:42.389Z,15.23
2022-09-06T22:32:48.520Z,15.40
2022-09-06T22:35:51.274Z,15.36
2022-09-06T22:38:59.291Z,15.34
2022-09-06T22:42:01.704Z,15.29
2022-09-06T22:45:04.283Z,15.32
2022-09-06T22:48:06.576Z,15.29
2022-09-06T22:51:09.961Z,15.28
2022-09-06T22:54:12.104Z,15.24
2022-09-06T22:57:14.112Z,15.16
2022-09-06T23:00:16.269Z,15.08
2022-09-06T23:03:18.446Z,15.09
2022-09-06T23:06:24.186Z,15.00
2022-09-06T23:09:26.261Z,15.09
2022-09-06T23:12:31.933Z,15.07
2022-09-06T23:15:42.210Z,15.19
2022-09-06T23:18:45.202Z,15.22
2022-09-06T23:21:48.839Z,15.10
2022-09-06T23:24:51.357Z,15.07
2022-09-06T23:27:54.592Z,15.08
2022-09-06T23:31:10.210Z,15.17
2022-09-06T23:34:12.474Z,15.19
2022-09-06T23:37:20.626Z,15.18
2022-09-06T23:40:22.754Z,15.12
2022-09-06T23:43:28.992Z,15.12
2022-09-06T23:46:32.095Z,15.07
2022-09-06T23:49:37.490Z,15.07
2022-09-06T23:52:39.646Z,15.09
2022-09-06T23:55:45.326Z,15.08
2022-09-06T23:58:48.330Z,15.08
